Latest Weather Observations for PORTABLE QFRI (Inglewood)

IDQ60801

Issued at 5:12 am EST Wednesday 19 September 2018 (issued every 10 minutes, with the page automatically refreshed every 10 minutes)

About weather observations | Map of weather stations | Latest weather observations for QLD | Other Formats
Station Details ID: 250073 Name: PORTABLE QFRI (INGLEWOOD) Lat: -28.42 Lon: 151.10 Height: 286.0 m
Data from the previous 72 hours. | See also: Recent months for locations in Queensland
Date/Time
EST
Temp
°C
App
Temp
°C
Dew
Point
°C
Rel
Hum
%
Delta-T
°C
Wind Press
QNH
hPa
Press
MSL
hPa
Rain since
9am
mm
Dir  Spd
km/h
Gust
km/h
Spd
kts
Gust
kts
19/04:50am 13.3 11.8 8.3 72 2.5 NE 6 7 3 4 - - 0.0
19/04:40am 13.4 11.7 8.4 72 2.5 NE 7 9 4 5 - - 0.0
19/04:30am 13.5 11.4 8.4 71 2.6 NE 9 11 5 6 - - 0.0
19/04:20am 13.6 11.9 8.4 71 2.6 NE 7 9 4 5 - - 0.0
19/04:10am 13.6 11.5 8.4 71 2.6 NE 9 11 5 6 - - 0.0
19/04:00am 13.7 11.6 8.4 70 2.7 NE 9 11 5 6 - - 0.0
19/03:50am 13.6 11.6 8.5 71 2.6 NE 9 11 5 6 - - 0.0
19/03:40am 13.7 11.7 8.5 71 2.6 NE 9 11 5 6 - - 0.0
19/03:30am 13.7 11.7 8.6 71 2.6 NE 9 11 5 6 - - 0.0
19/03:20am 13.9 11.9 8.6 70 2.7 NE 9 9 5 5 - - 0.0
19/03:10am 14.0 12.0 8.6 70 2.8 NE 9 11 5 6 - - 0.0
19/03:00am 14.1 12.1 8.6 69 2.8 NE 9 11 5 6 - - 0.0
19/02:50am 14.1 12.1 8.6 69 2.8 NE 9 9 5 5 - - 0.0
19/02:40am 14.3 12.3 8.6 68 2.9 NE 9 11 5 6 - - 0.0
19/02:30am 14.4 12.4 8.6 68 3.0 NE 9 11 5 6 - - 0.0
19/02:20am 14.5 12.5 8.6 67 3.0 NE 9 11 5 6 - - 0.0
19/02:10am 14.5 12.5 8.6 67 3.0 NE 9 9 5 5 - - 0.0
19/02:00am 14.6 12.6 8.5 67 3.1 NE 9 9 5 5 - - 0.0
19/01:50am 14.6 12.6 8.7 67 3.0 NE 9 9 5 5 - - 0.0
19/01:40am 14.8 12.8 8.6 66 3.2 NE 9 11 5 6 - - 0.0
19/01:30am 15.0 13.0 8.6 65 3.3 NE 9 11 5 6 - - 0.0
19/01:20am 15.1 12.7 8.6 65 3.3 NNE 11 15 6 8 - - 0.0
19/01:10am 15.3 12.9 8.6 64 3.5 NE 11 13 6 7 - - 0.0
19/01:00am 15.4 13.4 8.7 64 3.5 NE 9 11 5 6 - - 0.0
19/12:50am 15.7 13.7 8.6 62 3.7 NE 9 13 5 7 - - 0.0
19/12:40am 15.8 13.4 8.7 62 3.7 NE 11 15 6 8 - - 0.0
19/12:30am 15.9 12.8 8.7 62 3.7 NNE 15 17 8 9 - - 0.0
19/12:20am 16.1 13.3 8.7 61 3.8 NE 13 17 7 9 - - 0.0
19/12:10am 16.3 13.5 8.7 60 3.9 NE 13 15 7 8 - - 0.0
19/12:00am 16.5 13.7 8.6 59 4.1 NE 13 15 7 8 - - 0.0
 
Date/Time
EST
Temp
°C
App
Temp
°C
Dew
Point
°C
Rel
Hum
%
Delta-T
°C
Wind Press
QNH
hPa
Press
MSL
hPa
Rain since
9am
mm
Dir  Spd
km/h
Gust
km/h
Spd
kts
Gust
kts
18/11:50pm 16.6 13.8 8.7 59 4.1 NE 13 15 7 8 - - 0.0
18/11:40pm 16.7 13.9 8.7 59 4.2 NE 13 17 7 9 - - 0.0
18/11:30pm 16.8 14.0 8.6 58 4.3 NNE 13 17 7 9 - - 0.0
18/11:20pm 17.0 14.2 8.7 58 4.3 NNE 13 15 7 8 - - 0.0
18/11:10pm 17.2 14.4 8.6 57 4.5 NE 13 15 7 8 - - 0.0
18/11:00pm 17.4 15.0 8.5 56 4.6 NE 11 13 6 7 - - 0.0
18/10:50pm 17.6 15.5 8.3 54 4.8 NE 9 13 5 7 - - 0.0
18/10:40pm 17.8 15.6 7.9 52 5.1 NE 9 11 5 6 - - 0.0
18/10:30pm 17.9 15.6 7.6 51 5.3 NE 9 11 5 6 - - 0.0
18/10:20pm 18.0 15.6 7.1 49 5.5 NE 9 9 5 5 - - 0.0
18/10:10pm 18.2 16.1 6.6 46 5.9 NE 7 9 4 5 - - 0.0
18/10:00pm 18.5 15.6 6.4 45 6.1 NNE 11 13 6 7 - - 0.0
18/09:50pm 18.8 15.9 6.3 44 6.3 NNE 11 15 6 8 - - 0.0
18/09:40pm 19.1 15.7 6.0 42 6.6 NNE 13 15 7 8 - - 0.0
18/09:30pm 19.0 16.0 5.8 42 6.6 NNE 11 13 6 7 - - 0.0
18/09:20pm 18.8 15.7 5.6 42 6.6 NNE 11 13 6 7 - - 0.0
18/09:10pm 18.4 15.6 5.2 42 6.5 NNE 9 11 5 6 - - 0.0
18/09:00pm 18.4 15.9 4.9 41 6.6 NNE 7 7 4 4 - - 0.0
18/08:50pm 18.6 16.1 5.0 40 6.7 NNE 7 7 4 4 - - 0.0
18/08:40pm 19.0 16.2 5.0 39 6.9 NNE 9 11 5 6 - - 0.0
18/08:30pm 18.9 16.0 4.6 39 7.0 NE 9 11 5 6 - - 0.0
18/08:20pm 18.8 16.4 4.4 38 7.0 NE 6 7 3 4 - - 0.0
18/08:10pm 18.4 15.9 4.0 38 6.9 NE 6 7 3 4 - - 0.0
18/08:00pm 17.6 15.1 3.8 40 6.6 NE 6 7 3 4 - - 0.0
18/07:50pm 17.3 16.0 5.8 46 5.7 ENE 2 4 1 2 - - 0.0
18/07:40pm 17.8 16.2 4.3 40 6.5 NE 2 4 1 2 - - 0.0
18/07:30pm 18.2 17.0 4.6 40 6.6 CALM 0 2 0 1 - - 0.0
18/07:20pm 18.5 17.3 4.7 40 6.7 CALM 0 0 0 0 - - 0.0
18/07:10pm 18.9 17.7 4.8 39 6.9 CALM 0 0 0 0 - - 0.0
18/07:00pm 19.2 17.7 5.1 39 7.0 NE 2 2 1 1 - - 0.0
18/06:50pm 20.1 18.6 4.8 36 7.5 NE 2 4 1 2 - - 0.0
18/06:40pm 21.1 19.1 4.5 33 8.2 NE 4 6 2 3 - - 0.0
18/06:30pm 22.1 20.1 4.4 31 8.8 NE 4 6 2 3 - - 0.0
18/06:20pm 22.3 20.2 3.8 29 9.1 NE 4 6 2 3 - - 0.0
18/06:10pm 22.4 20.3 4.0 30 9.1 NE 4 6 2 3 - - 0.0
18/06:00pm 22.9 20.8 4.0 29 9.4 NE 4 6 2 3 - - 0.0
18/05:50pm 23.1 20.6 3.9 28 9.5 NNE 6 7 3 4 - - 0.0
18/05:40pm 23.5 20.9 4.2 28 9.6 NNE 7 7 4 4 - - 0.0
18/05:30pm 24.2 21.6 4.3 27 10.0 NNE 7 11 4 6 - - 0.0
18/05:20pm 24.6 21.9 3.7 25 10.4 N 7 15 4 8 - - 0.0
18/05:10pm 24.8 21.4 4.0 26 10.4 N 11 13 6 7 - - 0.0
18/05:00pm 25.2 22.3 4.5 26 10.5 N 9 9 5 5 - - 0.0
18/04:50pm 25.6 21.8 3.9 24 10.9 N 13 15 7 8 - - 0.0
18/04:40pm 25.7 23.6 3.8 24 11.0 NE 4 15 2 8 - - 0.0
18/04:30pm 25.4 22.3 3.6 24 10.9 NE 9 13 5 7 - - 0.0
18/04:20pm 26.0 22.7 4.5 25 11.0 NNE 11 17 6 9 - - 0.0
18/04:10pm 26.2 23.2 4.3 24 11.1 NE 9 13 5 7 - - 0.0
18/04:00pm 25.9 22.1 4.0 24 11.1 NE 13 15 7 8 - - 0.0
18/03:50pm 25.2 22.6 4.0 25 10.7 NNE 7 13 4 7 - - 0.0
18/03:40pm 25.9 23.0 4.9 26 10.8 NNE 9 13 5 7 - - 0.0
18/03:30pm 26.0 23.4 4.0 24 11.1 NNE 7 9 4 5 - - 0.0
18/03:20pm 25.0 22.0 4.3 26 10.5 N 9 13 5 7 - - 0.0
18/03:00pm 25.4 22.2 5.0 27 10.5 NNE 11 15 6 8 - - 0.0
18/02:50pm 25.9 22.3 5.1 26 10.7 ENE 13 19 7 10 - - 0.0
18/02:40pm 26.1 23.3 5.2 26 10.8 ENE 9 13 5 7 - - 0.0
18/02:30pm 25.9 23.5 5.3 26 10.7 NE 7 11 4 6 - - 0.0
18/02:20pm 25.8 23.4 5.4 27 10.6 NNW 7 11 4 6 - - 0.0
18/02:10pm 25.4 23.4 6.2 29 10.1 - 6 7 3 4 - - 0.0
18/02:00pm 26.3 23.3 5.9 27 10.7 N 11 17 6 9 - - 0.0
18/01:50pm 26.2 24.5 6.0 27 10.6 NNE 4 9 2 5 - - 0.0
18/01:40pm 25.2 22.6 6.1 29 10.0 NNE 9 15 5 8 - - 0.0
18/01:30pm 26.3 23.8 6.6 28 10.4 NNE 9 15 5 8 - - 0.0
18/01:20pm 25.6 22.3 6.2 29 10.2 N 13 17 7 9 - - 0.0
18/01:10pm 25.3 22.7 5.9 28 10.1 NE 9 15 5 8 - - 0.0
18/01:00pm 25.2 22.4 6.8 30 9.7 NNE 11 15 6 8 - - 0.0
18/12:50pm 25.0 23.1 7.4 32 9.4 NNE 7 17 4 9 - - 0.0
18/12:40pm 24.9 22.1 6.8 31 9.6 NNE 11 17 6 9 - - 0.0
18/12:30pm 24.9 21.4 7.4 32 9.3 N 15 22 8 12 - - 0.0
18/12:20pm 24.6 21.8 7.0 32 9.3 NNE 11 17 6 9 - - 0.0
18/12:10pm 24.2 21.3 8.1 35 8.7 NNE 13 22 7 12 - - 0.0
18/12:00pm 24.1 21.3 8.6 37 8.4 NNE 13 17 7 9 - - 0.0
18/11:50am 23.8 21.3 8.1 36 8.4 NNE 11 20 6 11 - - 0.0
18/11:20am 23.2 20.4 8.4 38 8.0 N 13 20 7 11 - - 0.0
18/11:10am 22.8 19.6 8.4 39 7.7 N 15 19 8 10 - - 0.0
18/11:00am 22.5 19.3 8.6 41 7.5 NNE 15 22 8 12 - - 0.0
18/10:50am 22.1 19.3 8.5 41 7.3 NNE 13 20 7 11 - - 0.0
18/10:40am 22.0 19.1 8.3 41 7.3 NNE 13 19 7 10 - - 0.0
18/10:30am 21.4 18.2 8.6 44 6.8 NNE 15 22 8 12 - - 0.0
18/10:20am 21.6 18.7 8.0 41 7.2 NNE 13 17 7 9 - - 0.0
18/10:10am 21.2 18.6 7.7 41 7.1 NE 11 15 6 8 - - 0.0
18/10:00am 20.7 17.4 8.2 44 6.6 NNE 15 19 8 10 - - 0.0
18/09:50am 20.5 16.8 8.0 44 6.6 NNE 17 20 9 11 - - 0.0
18/09:40am 19.8 16.2 8.2 47 6.1 NNE 17 20 9 11 - - 0.0
18/09:30am 19.8 16.2 8.3 47 6.1 NNE 17 19 9 10 - - 0.0
18/09:20am 19.5 16.3 8.6 49 5.8 NNE 15 19 8 10 - - 0.0
18/09:10am 18.9 16.1 8.5 51 5.5 NE 13 17 7 9 - - 0.0
18/09:00am 18.4 15.7 8.8 53 5.1 NE 13 17 7 9 - - 0.0
18/08:50am 18.0 15.2 8.7 54 4.9 NE 13 17 7 9 - - 0.0
18/08:40am 17.6 14.8 8.6 55 4.7 NNE 13 19 7 10 - - 0.0
18/08:30am 16.8 13.9 8.2 57 4.4 NE 13 17 7 9 - - 0.0
18/08:20am 16.3 13.0 8.1 58 4.2 NE 15 19 8 10 - - 0.0
18/08:10am 15.6 12.3 7.9 60 3.9 NE 15 19 8 10 - - 0.0
18/08:00am 15.4 12.8 7.9 61 3.8 NE 11 15 6 8 - - 0.0
18/07:50am 14.8 12.1 7.4 61 3.7 NE 11 17 6 9 - - 0.0
18/07:40am 14.2 11.8 7.1 62 3.5 NE 9 11 5 6 - - 0.0
18/07:30am 13.6 11.2 6.8 63 3.3 NE 9 11 5 6 - - 0.0
18/07:20am 12.9 10.8 6.6 65 3.1 NE 7 9 4 5 - - 0.0
18/07:10am 12.1 10.2 6.6 69 2.7 NE 6 6 3 3 - - 0.0
18/07:00am 11.1 9.5 6.4 73 2.2 NE 4 6 2 3 - - 0.0
18/06:50am 10.3 9.1 6.6 78 1.8 ENE 2 2 1 1 - - 0.0
18/06:40am 9.2 8.0 6.3 82 1.4 E 2 4 1 2 - - 0.0
18/06:30am 8.4 7.0 5.5 82 1.3 E 2 2 1 1 - - 0.0
18/06:20am 7.8 6.3 5.2 84 1.2 E 2 2 1 1 - - 0.0
18/06:10am 7.5 6.3 4.8 83 1.2 CALM 0 0 0 0 - - 0.0
18/06:00am 7.2 6.1 5.0 86 1.0 CALM 0 0 0 0 - - 0.0
18/05:50am 7.0 5.8 4.8 86 1.0 CALM 0 0 0 0 - - 0.0
18/05:40am 7.3 6.1 4.7 83 1.2 CALM 0 0 0 0 - - 0.0
18/05:30am 7.3 6.2 4.9 85 1.1 CALM 0 0 0 0 - - 0.0
18/05:20am 7.5 6.4 4.9 83 1.2 CALM 0 0 0 0 - - 0.0
18/05:10am 7.6 6.5 5.0 83 1.2 CALM 0 0 0 0 - - 0.0
18/05:00am 7.9 6.4 5.0 82 1.3 NNE 2 2 1 1 - - 0.0
18/04:50am 8.4 6.9 4.9 78 1.6 NNE 2 4 1 2 - - 0.0
18/04:40am 8.6 7.2 5.4 80 1.5 NE 2 4 1 2 - - 0.0
18/04:30am 8.7 7.2 5.2 79 1.6 NE 2 6 1 3 - - 0.0
18/04:20am 9.2 7.4 5.4 77 1.7 ENE 4 6 2 3 - - 0.0
18/04:10am 9.2 7.0 5.3 76 1.8 ENE 6 6 3 3 - - 0.0
18/04:00am 9.0 7.2 5.4 78 1.7 ENE 4 4 2 2 - - 0.0
18/03:50am 10.0 7.9 5.6 74 2.0 ENE 6 6 3 3 - - 0.0
18/03:40am 10.4 8.3 5.9 73 2.1 ENE 6 6 3 3 - - 0.0
18/03:30am 10.5 8.4 6.0 74 2.1 ENE 6 6 3 3 - - 0.0
18/03:20am 10.6 8.5 5.9 73 2.2 ENE 6 6 3 3 - - 0.0
18/03:10am 10.7 9.0 5.8 72 2.3 ENE 4 6 2 3 - - 0.0
18/03:00am 10.8 9.1 5.9 72 2.3 NE 4 4 2 2 - - 0.0
18/02:50am 11.2 9.5 5.9 70 2.5 NE 4 4 2 2 - - 0.0
18/02:40am 11.4 9.7 5.9 69 2.6 NE 4 4 2 2 - - 0.0
18/02:30am 11.5 9.8 5.9 68 2.7 NE 4 6 2 3 - - 0.0
18/02:20am 11.7 9.6 5.9 67 2.8 ENE 6 7 3 4 - - 0.0
18/02:10am 11.8 9.5 5.9 67 2.8 ENE 7 9 4 5 - - 0.0
18/02:00am 11.9 9.6 5.9 66 2.9 ENE 7 7 4 4 - - 0.0
18/01:50am 12.0 9.7 5.9 66 2.9 ENE 7 7 4 4 - - 0.0
18/01:40am 12.1 9.5 6.0 66 2.9 ENE 9 9 5 5 - - 0.0
18/01:30am 12.3 9.7 6.0 65 3.0 ENE 9 9 5 5 - - 0.0
18/01:20am 12.5 9.9 6.0 64 3.1 ENE 9 9 5 5 - - 0.0
18/01:10am 12.4 9.8 6.0 65 3.1 ENE 9 11 5 6 - - 0.0
18/01:00am 12.3 9.7 6.0 65 3.0 ENE 9 11 5 6 - - 0.0
18/12:50am 12.4 9.4 6.0 65 3.1 ENE 11 11 6 6 - - 0.0
18/12:40am 12.7 10.1 6.1 64 3.2 ENE 9 11 5 6 - - 0.0
18/12:30am 13.0 10.0 6.1 63 3.3 ENE 11 11 6 6 - - 0.0
18/12:20am 13.2 10.6 6.0 61 3.5 ENE 9 11 5 6 - - 0.0
18/12:10am 13.1 10.1 6.0 62 3.4 ENE 11 13 6 7 - - 0.0
18/12:00am 13.7 10.7 6.1 60 3.7 ENE 11 13 6 7 - - 0.0
 
Date/Time
EST
Temp
°C
App
Temp
°C
Dew
Point
°C
Rel
Hum
%
Delta-T
°C
Wind Press
QNH
hPa
Press
MSL
hPa
Rain since
9am
mm
Dir  Spd
km/h
Gust
km/h
Spd
kts
Gust
kts
17/11:50pm 13.9 11.0 6.4 60 3.7 ENE 11 13 6 7 - - 0.0
17/11:40pm 14.8 11.9 6.4 57 4.1 ENE 11 13 6 7 - - 0.0
17/11:30pm 15.1 11.8 6.4 56 4.3 ENE 13 17 7 9 - - 0.0
17/11:20pm 15.3 11.6 6.3 55 4.4 ENE 15 19 8 10 - - 0.0
17/11:10pm 15.2 11.4 6.0 54 4.5 NE 15 17 8 9 - - 0.0
17/11:00pm 14.6 11.5 5.5 54 4.4 ENE 11 13 6 7 - - 0.0
17/10:50pm 14.4 11.5 4.9 53 4.5 ENE 9 11 5 6 - - 0.0
17/10:40pm 14.5 11.6 4.4 50 4.7 ENE 9 11 5 6 - - 0.0
17/10:30pm 14.4 10.6 3.9 49 4.9 ENE 13 15 7 8 - - 0.0
17/10:20pm 14.4 10.6 3.8 49 4.9 ENE 13 15 7 8 - - 0.0
17/10:10pm 14.9 11.1 3.7 47 5.2 ENE 13 13 7 7 - - 0.0
17/10:00pm 15.5 11.7 3.7 45 5.5 ENE 13 13 7 7 - - 0.0
17/09:50pm 16.2 11.9 3.4 42 6.0 ENE 15 19 8 10 - - 0.0
17/09:40pm 16.4 12.4 2.9 40 6.2 ENE 13 17 7 9 - - 0.0
17/09:30pm 16.4 12.4 2.6 39 6.3 ENE 13 15 7 8 - - 0.0
17/09:20pm 16.6 12.9 2.4 38 6.5 ENE 11 15 6 8 - - 0.0
17/09:10pm 16.4 12.6 2.0 38 6.5 ENE 11 13 6 7 - - 0.0
17/09:00pm 16.3 12.9 2.0 38 6.5 ENE 9 11 5 6 - - 0.0
17/08:50pm 16.5 13.1 1.9 37 6.6 ENE 9 11 5 6 - - 0.0
17/08:40pm 16.7 12.5 1.7 36 6.8 ENE 13 13 7 7 - - 0.0
17/08:30pm 17.0 12.8 1.8 36 6.9 ENE 13 15 7 8 - - 0.0
17/08:20pm 17.4 12.8 1.6 34 7.2 ENE 15 17 8 9 - - 0.0
17/08:10pm 17.9 13.3 1.7 33 7.4 ENE 15 17 8 9 - - 0.0
17/08:00pm 18.2 12.9 1.6 33 7.6 ENE 19 22 10 12 - - 0.0
17/07:50pm 17.2 12.1 0.9 33 7.3 ENE 17 22 9 12 - - 0.0
17/07:40pm 15.5 12.1 2.0 40 6.1 ENE 9 11 5 6 - - 0.0
17/07:30pm 16.0 12.9 3.6 43 5.8 E 9 11 5 6 - - 0.0
17/07:20pm 16.6 13.6 2.1 37 6.6 E 7 7 4 4 - - 0.0
17/07:10pm 16.3 13.3 2.2 38 6.4 E 7 7 4 4 - - 0.0
17/07:00pm 15.8 13.2 3.4 43 5.8 ESE 6 7 3 4 - - 0.0
17/06:50pm 16.4 13.8 4.2 44 5.8 ESE 7 7 4 4 - - 0.0
17/06:40pm 17.5 14.7 3.0 38 6.8 E 7 7 4 4 - - 0.0
17/06:30pm 18.2 15.6 3.0 36 7.1 ESE 6 6 3 3 - - 0.0
17/06:20pm 18.9 16.2 2.6 33 7.6 ESE 6 6 3 3 - - 0.0
17/06:10pm 19.2 16.3 1.6 31 8.1 E 6 7 3 4 - - 0.0
17/06:00pm 19.7 16.9 2.3 31 8.1 E 6 7 3 4 - - 0.0
17/05:50pm 20.8 18.9 2.8 30 8.6 E 2 4 1 2 - - 0.0
17/05:40pm 21.5 18.9 0.9 25 9.5 ESE 4 6 2 3 - - 0.0
17/05:30pm 22.2 19.1 1.5 25 9.7 ESE 7 11 4 6 - - 0.0
17/05:20pm 22.7 19.5 0.9 23 10.2 E 7 11 4 6 - - 0.0
17/05:10pm 23.3 21.0 0.2 21 10.7 ESE 2 6 1 3 - - 0.0
17/05:00pm 23.3 20.0 -0.1 21 10.8 E 7 11 4 6 - - 0.0
17/04:50pm 23.6 20.4 0.8 22 10.7 NE 7 9 4 5 - - 0.0
17/04:40pm 23.6 20.3 0.1 21 10.9 ENE 7 13 4 7 - - 0.0
17/04:30pm 23.5 19.5 0.5 22 10.7 ESE 11 13 6 7 - - 0.0
17/04:20pm 23.5 19.5 0.4 21 10.7 E 11 15 6 8 - - 0.0
17/04:10pm 23.9 20.1 -0.5 20 11.2 NE 9 15 5 8 - - 0.0
17/04:00pm 23.9 20.6 0.3 21 11.0 NE 7 13 4 7 - - 0.0
17/03:50pm 23.9 21.2 0.6 21 10.9 ENE 4 9 2 5 - - 0.0
17/03:40pm 23.9 21.2 0.5 21 10.9 ESE 4 7 2 4 - - 0.0
17/03:30pm 23.8 20.1 0.0 20 11.0 NE 9 15 5 8 - - 0.0
17/03:20pm 23.8 19.8 0.3 21 10.9 NE 11 15 6 8 - - 0.0
17/03:10pm 23.7 20.1 0.9 22 10.7 ENE 9 17 5 9 - - 0.0
17/03:00pm 23.7 20.1 0.7 22 10.8 NE 9 13 5 7 - - 0.0
17/02:50pm 23.2 19.1 0.1 21 10.7 E 11 17 6 9 - - 0.0
17/02:40pm 23.4 19.7 0.1 21 10.8 ESE 9 17 5 9 - - 0.0
17/02:30pm 23.6 19.9 0.1 21 10.9 ENE 9 15 5 8 - - 0.0
17/02:20pm 23.4 20.5 1.4 23 10.4 SSE 6 17 3 9 - - 0.0
17/02:10pm 23.3 20.3 0.7 22 10.5 SE 6 11 3 6 - - 0.0
17/02:00pm 23.2 20.0 0.5 22 10.5 NNE 7 11 4 6 - - 0.0
17/01:50pm 23.0 19.8 0.7 23 10.4 ENE 7 13 4 7 - - 0.0
17/01:40pm 22.9 19.9 0.8 23 10.3 ENE 6 11 3 6 - - 0.0
17/01:30pm 22.5 18.2 0.7 23 10.1 E 13 20 7 11 - - 0.0
17/01:20pm 22.6 17.9 1.2 24 10.0 E 15 20 8 11 - - 0.0
17/01:10pm 22.6 18.4 1.6 25 9.9 ENE 13 17 7 9 - - 0.0
17/01:00pm 22.5 19.0 1.5 25 9.9 E 9 13 5 7 - - 0.0
17/12:50pm 22.2 19.1 1.5 25 9.7 ESE 7 11 4 6 - - 0.0
17/12:40pm 22.0 18.6 1.6 26 9.6 E 9 11 5 6 - - 0.0
17/12:30pm 22.1 19.2 1.3 25 9.7 N 6 11 3 6 - - 0.0
17/12:20pm 21.7 17.9 2.0 27 9.3 NE 11 13 6 7 - - 0.0
17/12:10pm 22.3 19.4 1.7 25 9.7 NE 6 11 3 6 - - 0.0
17/12:00pm 21.4 19.0 2.3 28 9.1 SSW 4 7 2 4 - - 0.0
17/11:50am 21.0 18.5 1.6 27 9.1 SE 4 6 2 3 - - 0.0
17/11:40am 20.9 17.5 1.6 27 9.0 ENE 9 13 5 7 - - 0.0
17/11:30am 20.6 16.7 1.0 27 9.0 ENE 11 17 6 9 - - 0.0
17/11:20am 20.5 17.0 1.4 28 8.8 ENE 9 11 5 6 - - 0.0
17/11:10am 20.5 17.0 1.3 28 8.9 ESE 9 19 5 10 - - 0.0
17/11:00am 21.0 18.2 2.2 29 8.9 WNW 6 7 3 4 - - 0.0
17/10:50am 20.8 17.7 1.6 28 8.9 N 7 11 4 6 - - 0.0
17/10:40am 20.4 17.5 1.7 29 8.7 NNW 6 13 3 7 - - 0.0
17/10:30am 19.9 15.7 1.8 30 8.4 NNE 13 15 7 8 - - 0.0
17/10:20am 19.9 16.5 2.0 30 8.3 NE 9 13 5 7 - - 0.0
17/10:10am 19.3 15.6 2.1 31 8.0 ENE 11 17 6 9 - - 0.0
17/10:00am 19.2 15.9 2.2 32 7.9 NE 9 15 5 8 - - 0.0
17/09:50am 18.9 15.2 2.3 33 7.7 NE 11 13 6 7 - - 0.0
17/09:40am 18.6 14.5 2.0 33 7.7 ENE 13 22 7 12 - - 0.0
17/09:30am 18.0 13.8 1.4 32 7.5 E 13 17 7 9 - - 0.0
17/09:20am 17.6 12.6 1.4 33 7.3 E 17 22 9 12 - - 0.0
17/09:00am 17.0 11.9 0.9 33 7.2 ENE 17 19 9 10 - - 0.0
17/08:50am 16.6 10.9 0.6 34 7.1 ENE 20 24 11 13 - - 0.0
17/08:40am 16.0 10.0 1.0 36 6.6 E 22 26 12 14 - - 0.0
17/08:30am 15.8 10.1 0.6 35 6.7 E 20 26 11 14 - - 0.0
17/08:20am 15.3 10.2 0.7 37 6.4 E 17 22 9 12 - - 0.0
17/08:10am 13.8 10.8 1.1 42 5.5 ESE 6 9 3 5 - - 0.0
17/08:00am 13.2 11.0 1.3 44 5.2 ESE 2 4 1 2 - - 0.0
17/07:50am 12.1 10.2 0.7 45 4.8 CALM 0 0 0 0 - - 0.0
17/07:40am 11.0 9.0 0.2 47 4.5 CALM 0 0 0 0 - - 0.0
17/07:30am 9.4 7.2 -1.2 47 4.2 CALM 0 4 0 2 - - 0.0
17/07:20am 8.4 6.0 -2.9 45 4.2 CALM 0 0 0 0 - - 0.0
17/07:10am 7.3 4.8 -4.3 43 4.1 CALM 0 0 0 0 - - 0.0
17/07:00am 6.1 3.5 -5.0 45 3.8 CALM 0 0 0 0 - - 0.0
17/06:50am 5.2 2.6 -4.6 49 3.4 CALM 0 2 0 1 - - 0.0
17/06:40am 4.3 1.7 -5.0 51 3.1 CALM 0 0 0 0 - - 0.0
17/06:30am 3.4 0.7 -6.4 48 3.2 CALM 0 0 0 0 - - 0.0
17/06:20am 2.7 0.0 -5.8 53 2.9 CALM 0 0 0 0 - - 0.0
17/06:10am 2.3 -0.5 -6.7 51 3.0 CALM 0 0 0 0 - - 0.0
17/06:00am 2.1 -0.7 -6.6 52 2.9 CALM 0 2 0 1 - - 0.0
17/05:50am 2.1 -0.7 -6.6 52 2.9 CALM 0 2 0 1 - - 0.0
17/05:40am 2.1 -0.6 -6.3 54 2.8 CALM 0 0 0 0 - - 0.0
17/05:30am 2.2 -0.6 -6.5 52 2.9 CALM 0 0 0 0 - - 0.0
17/05:20am 2.2 -1.0 -6.9 51 3.0 N 2 2 1 1 - - 0.0
17/05:10am 2.2 -0.9 -6.4 53 2.9 N 2 4 1 2 - - 0.0
17/05:00am 2.2 -1.3 -6.6 52 2.9 N 4 4 2 2 - - 0.0
17/04:50am 2.3 -0.9 -7.1 50 3.1 N 2 4 1 2 - - 0.0
17/04:40am 2.4 -0.8 -7.0 50 3.1 N 2 4 1 2 - - 0.0
17/04:30am 2.6 -0.1 -6.2 52 3.0 CALM 0 4 0 2 - - 0.0
17/04:20am 2.8 -0.3 -5.7 53 2.8 N 2 4 1 2 - - 0.0
17/04:10am 3.1 0.5 -5.4 53 2.8 CALM 0 2 0 1 - - 0.0
17/04:00am 3.4 0.8 -4.9 54 2.8 CALM 0 0 0 0 - - 0.0
17/03:50am 3.6 1.0 -4.8 54 2.8 CALM 0 0 0 0 - - 0.0
17/03:40am 3.8 1.3 -4.2 56 2.7 CALM 0 0 0 0 - - 0.0
17/03:30am 4.0 1.5 -3.8 57 2.7 CALM 0 0 0 0 - - 0.0
17/03:20am 4.1 1.7 -2.9 60 2.5 CALM 0 2 0 1 - - 0.0
17/03:10am 4.1 1.8 -2.7 61 2.4 CALM 0 0 0 0 - - 0.0
17/03:00am 4.2 1.7 -3.9 55 2.8 CALM 0 0 0 0 - - 0.0
17/02:50am 4.4 1.7 -6.4 45 3.5 CALM 0 0 0 0 - - 0.0
17/02:40am 4.3 1.5 -6.5 45 3.5 CALM 0 0 0 0 - - 0.0
17/02:30am 4.3 1.5 -6.5 45 3.5 CALM 0 0 0 0 - - 0.0
17/02:20am 4.4 1.6 -6.5 45 3.5 CALM 0 2 0 1 - - 0.0
17/02:00am 5.0 1.7 -4.5 50 3.3 ENE 4 4 2 2 - - 0.0
17/01:50am 5.3 2.3 -5.3 46 3.6 ENE 2 4 1 2 - - 0.0
17/01:40am 5.3 2.4 -4.3 50 3.3 ENE 2 4 1 2 - - 0.0
17/01:30am 5.5 3.0 -3.7 51 3.3 CALM 0 2 0 1 - - 0.0
17/01:20am 5.7 3.2 -3.7 51 3.3 CALM 0 0 0 0 - - 0.0
17/01:10am 5.9 3.2 -5.7 43 3.9 CALM 0 2 0 1 - - 0.0
17/01:00am 6.1 3.0 -6.1 41 4.1 E 2 4 1 2 - - 0.0
17/12:50am 6.0 2.8 -7.2 38 4.3 E 2 4 1 2 - - 0.0
17/12:40am 6.0 3.3 -6.2 41 4.1 CALM 0 0 0 0 - - 0.0
17/12:30am 5.8 3.1 -5.7 43 3.9 CALM 0 0 0 0 - - 0.0
17/12:20am 5.8 3.2 -4.9 46 3.7 CALM 0 4 0 2 - - 0.0
17/12:10am 6.0 2.7 -4.4 47 3.6 ENE 4 6 2 3 - - 0.0
17/12:00am 6.2 3.2 -5.0 44 3.9 E 2 4 1 2 - - 0.0
 
Date/Time
EST
Temp
°C
App
Temp
°C
Dew
Point
°C
Rel
Hum
%
Delta-T
°C
Wind Press
QNH
hPa
Press
MSL
hPa
Rain since
9am
mm
Dir  Spd
km/h
Gust
km/h
Spd
kts
Gust
kts
16/11:50pm 6.3 3.0 -4.7 45 3.8 E 4 6 2 3 - - 0.0
16/11:40pm 6.7 3.7 -5.6 41 4.2 E 2 6 1 3 - - 0.0
16/11:30pm 7.2 4.5 -5.8 39 4.5 CALM 0 0 0 0 - - 0.0
16/11:20pm 7.3 4.6 -6.3 37 4.6 CALM 0 2 0 1 - - 0.0
16/11:10pm 8.2 5.1 -6.0 36 4.9 W 2 4 1 2 - - 0.0
16/11:00pm 8.7 5.5 -7.3 31 5.4 SW 2 4 1 2 - - 0.0
16/10:50pm 9.0 6.2 -7.4 30 5.6 CALM 0 2 0 1 - - 0.0
16/10:40pm 9.0 4.4 -8.0 29 5.7 ESE 9 15 5 8 - - 0.0
16/10:30pm 7.8 2.8 -8.7 30 5.3 ESE 11 19 6 10 - - 0.0
16/10:20pm 7.7 4.3 -4.9 40 4.5 E 4 7 2 4 - - 0.0
16/10:10pm 8.3 5.6 -5.8 36 4.9 CALM 0 0 0 0 - - 0.0
16/10:00pm 8.5 5.7 -6.9 33 5.2 CALM 0 0 0 0 - - 0.0
16/09:50pm 8.8 6.1 -6.2 34 5.2 CALM 0 0 0 0 - - 0.0
16/09:40pm 9.3 6.3 -4.9 36 5.1 SSW 2 4 1 2 - - 0.0
16/09:30pm 10.1 6.6 -6.2 31 5.8 SW 4 6 2 3 - - 0.0
16/09:20pm 10.6 6.4 -9.7 23 6.7 WSW 6 7 3 4 - - 0.0
16/09:10pm 11.0 6.9 -9.1 23 6.7 WSW 6 7 3 4 - - 0.0
16/09:00pm 11.6 7.4 -10.1 21 7.1 W 6 7 3 4 - - 0.0
16/08:50pm 11.8 7.6 -10.3 20 7.3 W 6 7 3 4 - - 0.0
16/08:40pm 11.9 7.5 -10.2 20 7.3 W 7 7 4 4 - - 0.0
16/08:30pm 12.1 7.7 -9.7 21 7.3 WSW 7 7 4 4 - - 0.0
16/08:20pm 12.6 7.9 -9.7 20 7.5 WSW 9 9 5 5 - - 0.0
16/08:10pm 12.8 8.4 -10.4 19 7.7 W 7 9 4 5 - - 0.0
16/08:00pm 12.9 8.1 -9.9 19 7.7 WSW 9 11 5 6 - - 0.0
16/07:50pm 13.2 8.4 -9.9 19 7.8 W 9 11 5 6 - - 0.0
16/07:40pm 13.4 9.1 -9.5 19 7.8 W 7 9 4 5 - - 0.0
16/07:30pm 13.8 9.1 -9.7 18 8.0 W 9 9 5 5 - - 0.0
16/07:20pm 14.0 9.3 -9.6 18 8.1 W 9 9 5 5 - - 0.0
16/07:10pm 14.2 9.8 -9.6 18 8.2 W 7 9 4 5 - - 0.0
16/07:00pm 14.3 9.9 -9.6 18 8.3 W 7 9 4 5 - - 0.0
16/06:50pm 14.4 9.7 -9.6 18 8.3 WSW 9 11 5 6 - - 0.0
16/06:40pm 14.5 9.8 -9.3 18 8.3 WSW 9 11 5 6 - - 0.0
16/06:30pm 14.8 9.7 -9.0 18 8.4 WSW 11 13 6 7 - - 0.0
16/06:20pm 15.3 9.9 -9.0 18 8.6 WSW 13 13 7 7 - - 0.0
16/06:10pm 15.8 10.0 -9.1 17 8.9 WSW 15 17 8 9 - - 0.0
16/06:00pm 16.2 10.3 -9.3 16 9.1 WSW 15 17 8 9 - - 0.0
16/05:50pm 16.7 10.1 -9.5 16 9.3 WSW 19 20 10 11 - - 0.0
16/05:40pm 17.0 10.4 -9.2 16 9.4 WSW 19 22 10 12 - - 0.0
16/05:30pm 17.6 10.4 -9.6 15 9.8 WSW 22 24 12 13 - - 0.0
16/05:20pm 18.0 11.2 -9.3 15 9.9 WSW 20 24 11 13 - - 0.0
16/05:10pm 18.2 10.6 -9.5 14 10.1 WSW 24 28 13 15 - - 0.0
16/05:00pm 18.3 10.3 -9.7 14 10.1 WSW 26 28 14 15 - - 0.0
16/04:50pm 18.6 10.6 -9.8 13 10.3 WSW 26 32 14 17 - - 0.0
16/04:40pm 18.9 11.3 -9.7 13 10.4 WSW 24 28 13 15 - - 0.0
16/04:30pm 19.0 11.4 -9.8 13 10.5 WSW 24 30 13 16 - - 0.0
16/04:20pm 19.0 11.0 -9.9 13 10.5 WSW 26 30 14 16 - - 0.0
16/04:10pm 19.2 10.8 -9.9 13 10.6 WSW 28 32 15 17 - - 0.0
16/04:00pm 19.5 11.9 -9.7 13 10.7 WSW 24 28 13 15 - - 0.0
16/03:50pm 19.5 11.5 -9.9 13 10.7 WSW 26 33 14 18 - - 0.0
16/03:40pm 19.4 11.0 -9.7 13 10.7 WSW 28 33 15 18 - - 0.0
16/03:30pm 19.6 12.0 -9.5 13 10.7 WSW 24 33 13 18 - - 0.0
16/03:20pm 19.7 11.8 -8.6 14 10.6 WSW 26 35 14 19 - - 0.0
16/03:10pm 19.5 10.9 -8.4 14 10.5 WSW 30 33 16 18 - - 0.0
16/03:00pm 19.8 11.6 -8.2 14 10.6 WSW 28 32 15 17 - - 0.0
16/02:50pm 19.7 11.5 -7.7 15 10.5 SW 28 35 15 19 - - 0.0
16/02:40pm 19.8 11.6 -7.6 15 10.5 WSW 28 35 15 19 - - 0.0
16/02:30pm 19.7 12.7 -7.7 15 10.5 WSW 22 26 12 14 - - 0.0
16/02:20pm 19.5 12.4 -8.0 15 10.4 WSW 22 30 12 16 - - 0.0
16/02:10pm 19.9 12.8 -8.5 14 10.7 WSW 22 30 12 16 - - 0.0
16/02:00pm 19.5 12.0 -8.3 14 10.5 WSW 24 28 13 15 - - 0.0
16/01:50pm 19.5 13.0 -7.8 15 10.4 WSW 19 32 10 17 - - 0.0
16/01:40pm 19.4 11.9 -8.7 14 10.5 SW 24 30 13 16 - - 0.0
16/01:30pm 19.2 11.4 -8.1 15 10.3 SW 26 30 14 16 - - 0.0
16/01:20pm 19.4 12.3 -8.6 14 10.5 SW 22 32 12 17 - - 0.0
16/01:10pm 19.4 12.3 -8.7 14 10.5 WSW 22 33 12 18 - - 0.0
16/01:00pm 19.2 11.7 -8.5 14 10.4 SW 24 35 13 19 - - 0.0
16/12:50pm 19.2 11.5 -6.6 17 10.0 SW 26 33 14 18 - - 0.0
16/12:40pm 19.0 12.4 -6.5 17 9.9 WSW 20 28 11 15 - - 0.0
16/12:30pm 19.1 11.8 -6.6 17 10.0 SW 24 33 13 18 - - 0.0
16/12:20pm 18.8 10.6 -7.3 16 10.0 WSW 28 32 15 17 - - 0.0
16/12:10pm 19.1 12.2 -6.4 17 10.0 WSW 22 32 12 17 - - 0.0
16/12:00pm 18.7 11.5 -5.3 19 9.5 WSW 24 30 13 16 - - 0.0
16/11:50am 18.8 11.5 -6.5 17 9.8 WSW 24 30 13 16 - - 0.0
16/11:40am 19.0 11.3 -6.1 17 9.9 SW 26 30 14 16 - - 0.0
16/11:30am 19.0 11.6 -7.4 16 10.1 WSW 24 30 13 16 - - 0.0
16/11:20am 18.7 11.4 -5.8 18 9.6 WSW 24 32 13 17 - - 0.0
16/11:10am 18.8 11.1 -6.1 18 9.8 WSW 26 32 14 17 - - 0.0
16/11:00am 18.7 11.5 -5.4 19 9.6 WSW 24 30 13 16 - - 0.0
16/10:50am 18.7 11.5 -5.0 19 9.5 WSW 24 28 13 15 - - 0.0
16/10:40am 18.5 10.5 -5.3 19 9.5 WSW 28 33 15 18 - - 0.0
16/10:30am 18.3 10.0 -5.1 20 9.3 WSW 30 32 16 17 - - 0.0
16/10:20am 18.5 11.5 -3.8 21 9.1 WSW 24 30 13 16 - - 0.0
16/10:10am 18.4 11.9 -2.7 23 8.8 WSW 22 26 12 14 - - 0.0
16/10:00am 18.0 11.4 -3.0 24 8.7 WSW 22 30 12 16 - - 0.0
16/09:50am 17.8 10.9 -2.8 24 8.6 SW 24 30 13 16 - - 0.0
16/09:40am 17.9 11.0 -2.9 24 8.6 WSW 24 28 13 15 - - 0.0
16/09:30am 17.5 10.6 -2.8 25 8.4 WSW 24 28 13 15 - - 0.0
16/09:20am 17.1 10.2 -2.6 26 8.2 WSW 24 28 13 15 - - 0.0
16/09:10am 17.0 10.1 -2.5 26 8.1 SW 24 32 13 17 - - 0.0
16/09:00am 16.8 10.2 -2.9 26 8.1 SW 22 28 12 15 - - 0.0
16/08:50am 16.6 10.0 -3.0 26 8.0 WSW 22 26 12 14 - - 0.0
16/08:40am 16.2 9.7 -2.8 27 7.8 SW 22 26 12 14 - - 0.0
16/08:30am 15.9 8.9 -3.1 27 7.7 WSW 24 26 13 14 - - 0.0
16/08:20am 15.5 8.9 -3.0 28 7.5 WSW 22 26 12 14 - - 0.0
16/08:10am 15.3 9.3 -2.7 29 7.3 WSW 19 22 10 12 - - 0.0
16/08:00am 14.8 8.2 -2.9 29 7.1 WSW 22 26 12 14 - - 0.0
16/07:50am 14.8 7.8 -3.1 29 7.2 WSW 24 30 13 16 - - 0.0
16/07:40am 14.9 7.2 -3.0 29 7.2 WSW 28 30 15 16 - - 0.0
16/07:30am 15.0 7.6 -3.3 28 7.3 SW 26 30 14 16 - - 0.0
16/07:20am 14.5 6.7 -3.4 29 7.1 WSW 28 32 15 17 - - 0.0
16/07:10am 14.4 7.0 -3.6 28 7.1 WSW 26 32 14 17 - - 0.0
16/07:00am 14.3 7.7 -3.6 29 7.1 WSW 22 26 12 14 - - 0.0
16/06:50am 14.0 7.4 -3.5 29 6.9 WSW 22 24 12 13 - - 0.0
16/06:40am 13.8 7.6 -3.5 30 6.8 WSW 20 26 11 14 - - 0.0
16/06:30am 13.6 7.3 -3.8 29 6.8 WSW 20 24 11 13 - - 0.0
16/06:20am 13.6 7.3 -3.9 29 6.8 WSW 20 22 11 12 - - 0.0
16/06:10am 13.6 7.3 -4.1 29 6.8 WSW 20 24 11 13 - - 0.0
16/06:00am 13.6 7.3 -4.1 29 6.8 WSW 20 24 11 13 - - 0.0
16/05:50am 13.7 7.4 -4.1 29 6.9 WSW 20 24 11 13 - - 0.0
16/05:40am 13.9 7.2 -4.3 28 7.0 WSW 22 24 12 13 - - 0.0
16/05:30am 14.1 7.0 -4.2 28 7.1 WSW 24 32 13 17 - - 0.0
16/05:20am 14.3 8.0 -3.9 28 7.1 WSW 20 28 11 15 - - 0.0

Other Formats:

Comma delimited format used in spreadsheet applications
http://www.bom.gov.au/fwo/IDQ60801/IDQ60801.99122.axf

JavaScript Object Notation format (JSON) in row-major order
http://www.bom.gov.au/fwo/IDQ60801/IDQ60801.99122.json